Time;durP1;ratioP1;P1;durP2;ratioP2;P2;SDS_P1;SDS_P2;PMS_P1;PMS_P2;Temp;Humidity;BMP_temperature;BMP_pressure;BME280_temperature;BME280_humidity;BME280_pressure;Samples;Min_cycle;Max_cycle;Signal;HPM_P1;HPM_P2
2020/12/11 00:01:07;;;;;;;32.63;14.60;;;1.40;99.90;;;;;;5057310;28;20835;-58
2020/12/11 00:03:33;;;;;;;41.20;15.60;;;1.50;99.90;;;;;;5057025;28;20468;-56
2020/12/11 00:05:59;;;;;;;38.17;15.87;;;1.50;99.90;;;;;;5057081;28;20509;-58
2020/12/11 00:08:26;;;;;;;43.10;17.23;;;1.50;99.90;;;;;;5059427;28;20459;-57
2020/12/11 00:10:52;;;;;;;38.20;15.87;;;1.60;99.90;;;;;;5061176;28;20452;-57
2020/12/11 00:13:18;;;;;;;36.50;15.20;;;1.60;99.90;;;;;;5061281;28;20455;-56
2020/12/11 00:15:44;;;;;;;35.43;16.00;;;1.50;99.90;;;;;;5060210;28;20478;-58
2020/12/11 00:18:10;;;;;;;34.83;15.90;;;1.50;99.90;;;;;;5059425;28;20461;-58
2020/12/11 00:20:37;;;;;;;39.77;15.83;;;1.40;99.90;;;;;;5057199;28;20455;-58
2020/12/11 00:23:04;;;;;;;40.20;15.80;;;1.30;99.90;;;;;;5056901;28;20765;-58
2020/12/11 00:25:31;;;;;;;42.23;16.60;;;1.20;99.90;;;;;;5057457;28;20451;-58
2020/12/11 00:27:57;;;;;;;38.27;15.17;;;1.20;99.90;;;;;;5056546;28;20450;-57
2020/12/11 00:30:23;;;;;;;31.97;15.93;;;1.20;99.90;;;;;;5056339;28;20527;-59
2020/12/11 00:32:49;;;;;;;31.40;15.77;;;1.20;99.90;;;;;;5056065;28;20491;-57
2020/12/11 00:35:15;;;;;;;40.37;18.33;;;1.30;99.90;;;;;;5056275;28;20802;-59
2020/12/11 00:37:42;;;;;;;38.90;16.03;;;1.30;99.90;;;;;;5056358;28;20458;-59
2020/12/11 00:40:08;;;;;;;42.43;17.67;;;1.40;99.90;;;;;;5056371;28;20465;-57
2020/12/11 00:42:35;;;;;;;43.37;17.60;;;1.40;99.90;;;;;;5056184;28;20521;-60
2020/12/11 00:45:01;;;;;;;43.80;18.20;;;1.40;99.90;;;;;;5055866;28;20483;-59
2020/12/11 00:47:27;;;;;;;37.33;17.27;;;1.40;99.90;;;;;;5056118;28;20517;-60
2020/12/11 00:49:53;;;;;;;43.53;17.30;;;1.40;99.90;;;;;;5056194;28;20451;-60
2020/12/11 00:52:19;;;;;;;42.17;16.63;;;1.30;99.90;;;;;;5056085;28;20455;-59
2020/12/11 00:54:46;;;;;;;48.63;18.57;;;1.30;99.90;;;;;;5055196;28;20506;-59
2020/12/11 00:57:12;;;;;;;42.57;17.10;;;1.30;99.90;;;;;;5055999;28;20463;-59
2020/12/11 00:59:40;;;;;;;50.10;17.87;;;1.30;99.90;;;;;;5055964;28;20765;-60
2020/12/11 01:02:06;;;;;;;42.03;18.03;;;1.40;99.90;;;;;;5056015;28;20454;-58
2020/12/11 01:04:32;;;;;;;48.67;19.30;;;1.30;99.90;;;;;;5055939;28;20528;-59
2020/12/11 01:06:58;;;;;;;39.40;18.27;;;1.30;99.90;;;;;;5056046;28;20451;-59
2020/12/11 01:09:24;;;;;;;44.40;17.27;;;1.30;99.90;;;;;;5055919;28;20451;-58
2020/12/11 01:11:50;;;;;;;41.63;16.50;;;1.30;99.90;;;;;;5055577;28;20581;-58
2020/12/11 01:14:16;;;;;;;41.40;17.33;;;1.30;99.90;;;;;;5055808;28;20479;-56
2020/12/11 01:16:44;;;;;;;42.97;17.50;;;1.20;99.90;;;;;;5056662;28;20521;-58
2020/12/11 01:19:10;;;;;;;41.40;17.97;;;1.20;99.90;;;;;;5056651;28;20495;-58
2020/12/11 01:21:36;;;;;;;43.60;17.17;;;1.20;99.90;;;;;;5056555;28;20451;-56
2020/12/11 01:24:03;;;;;;;50.70;17.43;;;1.10;99.90;;;;;;5056587;28;20909;-57
2020/12/11 01:26:29;;;;;;;44.70;18.63;;;1.10;99.90;;;;;;5055677;28;20906;-56
2020/12/11 01:28:55;;;;;;;47.90;18.87;;;1.10;99.90;;;;;;5056526;28;20532;-58
2020/12/11 01:31:21;;;;;;;49.63;18.20;;;1.20;99.90;;;;;;5056751;28;20459;-58
2020/12/11 01:33:49;;;;;;;43.67;18.13;;;1.20;99.90;;;;;;5055910;28;20447;-58
2020/12/11 01:36:22;;;;;;;35.50;15.70;;;1.30;99.90;;;;;;5056525;28;20483;-59
2020/12/11 01:38:48;;;;;;;32.37;15.27;;;1.30;99.90;;;;;;5062230;28;20444;-55
2020/12/11 01:41:14;;;;;;;38.60;17.37;;;1.40;99.90;;;;;;5061959;28;20516;-60
2020/12/11 01:43:40;;;;;;;39.33;17.17;;;1.40;99.90;;;;;;5057445;28;20483;-59
2020/12/11 01:46:06;;;;;;;33.77;15.90;;;1.40;99.90;;;;;;5063963;28;20451;-55
2020/12/11 01:48:32;;;;;;;36.63;14.00;;;1.50;99.90;;;;;;5065122;28;20520;-61
2020/12/11 01:51:00;;;;;;;33.27;15.43;;;1.50;99.90;;;;;;5064892;28;20458;-62
2020/12/11 01:53:30;;;;;;;36.47;14.90;;;1.50;99.90;;;;;;5063560;28;20481;-62
2020/12/11 01:55:59;;;;;;;34.70;15.63;;;1.50;99.90;;;;;;5068882;28;20471;-62
2020/12/11 01:58:30;;;;;;;35.50;17.03;;;1.50;99.90;;;;;;5070334;28;20455;-59
2020/12/11 02:00:56;;;;;;;40.23;17.07;;;1.50;99.90;;;;;;5071162;28;20440;-58
2020/12/11 02:03:24;;;;;;;34.33;15.60;;;1.40;99.90;;;;;;5063473;28;20451;-59
2020/12/11 02:05:50;;;;;;;41.03;15.50;;;1.40;99.90;;;;;;5061410;28;20451;-56
2020/12/11 02:08:17;;;;;;;38.80;17.27;;;1.40;99.90;;;;;;5059961;28;20855;-58
2020/12/11 02:10:45;;;;;;;45.23;18.00;;;1.30;99.90;;;;;;5059355;28;20762;-59
2020/12/11 02:13:11;;;;;;;36.43;16.30;;;1.20;99.90;;;;;;5060516;28;20475;-62
2020/12/11 02:15:37;;;;;;;43.33;17.40;;;1.10;99.90;;;;;;5060480;28;20482;-63
2020/12/11 02:18:04;;;;;;;39.17;17.00;;;1.10;99.90;;;;;;5060165;28;20512;-54
2020/12/11 02:20:31;;;;;;;44.47;16.10;;;1.10;99.90;;;;;;5060395;28;20455;-56
2020/12/11 02:22:58;;;;;;;40.80;16.07;;;1.10;99.90;;;;;;5060661;28;20901;-61
2020/12/11 02:25:24;;;;;;;42.27;15.90;;;1.20;99.90;;;;;;5061020;28;20458;-62
2020/12/11 02:27:50;;;;;;;41.50;17.93;;;1.10;99.90;;;;;;5060053;28;20455;-61
2020/12/11 02:30:17;;;;;;;38.20;17.03;;;1.10;99.90;;;;;;5058753;28;20789;-62
2020/12/11 02:32:43;;;;;;;47.90;18.53;;;1.20;99.90;;;;;;5057459;28;20818;-57
2020/12/11 02:35:10;;;;;;;38.87;16.90;;;1.10;99.90;;;;;;5054896;28;20468;-58
2020/12/11 02:37:37;;;;;;;51.57;19.00;;;1.10;99.90;;;;;;5054606;28;20471;-57
2020/12/11 02:40:04;;;;;;;40.27;16.77;;;1.10;99.90;;;;;;5054422;28;20972;-58
2020/12/11 02:42:31;;;;;;;43.90;20.70;;;1.20;99.90;;;;;;5055093;28;20480;-61
2020/12/11 02:44:57;;;;;;;42.50;18.03;;;1.20;99.90;;;;;;5054104;28;20491;-57
2020/12/11 02:47:24;;;;;;;54.33;19.40;;;1.30;99.90;;;;;;5054591;28;20900;-62
2020/12/11 02:49:50;;;;;;;40.97;17.77;;;1.40;99.90;;;;;;5055543;28;20451;-62
2020/12/11 02:52:16;;;;;;;43.50;17.37;;;1.50;99.90;;;;;;5057983;28;20528;-62
2020/12/11 02:54:42;;;;;;;49.47;19.67;;;1.60;99.90;;;;;;5055355;28;20487;-61
2020/12/11 02:57:09;;;;;;;43.70;16.70;;;1.60;99.90;;;;;;5054817;28;20554;-62
2020/12/11 02:59:35;;;;;;;41.37;15.67;;;1.70;99.90;;;;;;5054728;28;20467;-62
2020/12/11 03:02:01;;;;;;;40.17;16.87;;;1.60;99.90;;;;;;5054455;28;20908;-62
2020/12/11 03:04:28;;;;;;;40.83;17.10;;;1.70;99.90;;;;;;5054562;28;20447;-62
2020/12/11 03:06:54;;;;;;;37.47;15.70;;;1.70;99.90;;;;;;5054399;28;20451;-57
2020/12/11 03:09:20;;;;;;;46.87;17.70;;;1.80;99.90;;;;;;5054561;28;20550;-58
2020/12/11 03:11:46;;;;;;;43.30;17.80;;;1.80;99.90;;;;;;5053938;28;20452;-62
2020/12/11 03:14:13;;;;;;;37.63;15.37;;;1.80;99.90;;;;;;5054306;28;20825;-58
2020/12/11 03:16:39;;;;;;;37.73;16.80;;;1.80;99.90;;;;;;5046844;28;20524;-59
2020/12/11 03:19:05;;;;;;;38.90;19.37;;;1.80;99.90;;;;;;5058630;28;20706;-58
2020/12/11 03:21:31;;;;;;;47.80;18.37;;;1.80;99.90;;;;;;5057769;28;20455;-56
2020/12/11 03:23:57;;;;;;;44.90;18.10;;;1.70;99.90;;;;;;5058692;28;20462;-59
2020/12/11 03:26:23;;;;;;;34.50;17.00;;;1.70;99.90;;;;;;5057264;28;20970;-58
2020/12/11 03:28:51;;;;;;;41.63;17.77;;;1.70;99.90;;;;;;5058156;28;20520;-62
2020/12/11 03:31:18;;;;;;;39.13;17.37;;;1.70;99.90;;;;;;5057302;28;20936;-62
2020/12/11 03:33:44;;;;;;;46.03;16.33;;;1.70;99.90;;;;;;5057683;28;20528;-61
2020/12/11 03:36:10;;;;;;;36.30;16.97;;;1.70;99.90;;;;;;5057628;28;20875;-62
2020/12/11 03:38:36;;;;;;;43.20;17.53;;;1.70;99.90;;;;;;5057525;28;20516;-62
2020/12/11 03:41:02;;;;;;;40.43;18.23;;;1.70;99.90;;;;;;5057661;28;20450;-61
2020/12/11 03:43:28;;;;;;;38.90;15.47;;;1.70;99.90;;;;;;5057815;28;20732;-62
2020/12/11 03:45:54;;;;;;;39.83;16.03;;;1.70;99.90;;;;;;5057729;28;20515;-62
2020/12/11 03:48:21;;;;;;;57.80;18.43;;;1.80;99.90;;;;;;5057162;28;20924;-62
2020/12/11 03:50:47;;;;;;;39.03;15.27;;;1.80;99.90;;;;;;5057748;28;20760;-62
2020/12/11 03:53:13;;;;;;;37.23;16.53;;;1.80;99.90;;;;;;5057731;28;20495;-62
2020/12/11 03:55:39;;;;;;;40.30;16.90;;;1.70;99.90;;;;;;5057959;28;20556;-62
2020/12/11 03:58:06;;;;;;;48.07;18.87;;;1.70;99.90;;;;;;5058050;28;20811;-62
2020/12/11 04:00:32;;;;;;;43.50;18.20;;;1.80;99.90;;;;;;5057461;28;20512;-62
2020/12/11 04:02:58;;;;;;;56.07;18.00;;;1.80;99.90;;;;;;5057411;28;20527;-61
2020/12/11 04:05:25;;;;;;;44.17;17.37;;;1.80;99.90;;;;;;5057987;28;20459;-57
2020/12/11 04:07:51;;;;;;;50.77;19.30;;;1.80;99.90;;;;;;5057149;28;20513;-59
2020/12/11 04:10:17;;;;;;;45.13;19.47;;;1.80;99.90;;;;;;5057283;28;20459;-56
2020/12/11 04:12:43;;;;;;;43.13;17.27;;;1.80;99.90;;;;;;5057778;28;20846;-60
2020/12/11 04:15:09;;;;;;;49.07;18.17;;;1.80;99.90;;;;;;5056655;28;20556;-61
2020/12/11 04:17:35;;;;;;;37.80;17.67;;;1.80;99.90;;;;;;5056955;28;20455;-61
2020/12/11 04:20:01;;;;;;;47.93;18.23;;;1.80;99.90;;;;;;5057126;28;20463;-61
2020/12/11 04:22:28;;;;;;;46.57;20.10;;;1.90;99.90;;;;;;5057044;28;20455;-62
2020/12/11 04:24:54;;;;;;;41.80;17.07;;;1.90;99.90;;;;;;5056564;28;20455;-59
2020/12/11 04:27:20;;;;;;;42.03;16.80;;;1.80;99.90;;;;;;5058557;28;20455;-58
2020/12/11 04:29:46;;;;;;;36.80;16.17;;;1.70;99.90;;;;;;5058857;28;20545;-57
2020/12/11 04:32:14;;;;;;;38.43;16.00;;;1.70;99.90;;;;;;5057899;28;20447;-58
2020/12/11 04:34:40;;;;;;;35.60;16.23;;;1.70;99.90;;;;;;5048504;28;20479;-57
2020/12/11 04:37:06;;;;;;;32.67;16.13;;;1.60;99.90;;;;;;5056554;28;20463;-58
2020/12/11 04:39:33;;;;;;;35.63;17.23;;;1.60;99.90;;;;;;5056108;28;20457;-62
2020/12/11 04:42:02;;;;;;;34.70;16.43;;;1.60;99.90;;;;;;5056406;28;20521;-62
2020/12/11 04:44:28;;;;;;;35.70;16.30;;;1.50;99.90;;;;;;5056640;28;20486;-61
2020/12/11 04:46:55;;;;;;;41.60;17.67;;;1.50;99.90;;;;;;5057108;28;20455;-62
2020/12/11 04:49:22;;;;;;;33.93;14.10;;;1.40;99.90;;;;;;5058022;28;20844;-63
2020/12/11 04:51:49;;;;;;;39.53;16.10;;;1.40;99.90;;;;;;5056501;28;20486;-61
2020/12/11 04:54:18;;;;;;;40.63;15.60;;;1.50;99.90;;;;;;5056490;28;20462;-62
2020/12/11 04:56:48;;;;;;;40.03;17.23;;;1.50;99.90;;;;;;5056407;28;20494;-61
2020/12/11 04:59:15;;;;;;;36.70;16.27;;;1.40;99.90;;;;;;5056855;28;20455;-61
2020/12/11 05:01:42;;;;;;;41.43;16.60;;;1.40;99.90;;;;;;5056729;28;20459;-61
2020/12/11 05:04:08;;;;;;;38.37;17.67;;;1.40;99.90;;;;;;5056929;28;20517;-63
2020/12/11 05:06:34;;;;;;;37.10;16.20;;;1.40;99.90;;;;;;5055779;28;20596;-62
2020/12/11 05:09:14;;;;;;;37.97;17.63;;;1.50;99.90;;;;;;5056139;28;20455;-61
2020/12/11 05:11:42;;;;;;;42.40;16.80;;;1.50;99.90;;;;;;5056333;28;20435;-57
2020/12/11 05:14:26;;;;;;;38.07;15.03;;;1.50;99.90;;;;;;5055785;28;20455;-62
2020/12/11 05:16:57;;;;;;;41.83;16.43;;;1.50;99.90;;;;;;5056117;28;20838;-57
2020/12/11 05:19:24;;;;;;;37.37;15.90;;;1.50;99.90;;;;;;5055929;28;20558;-62
2020/12/11 05:21:50;;;;;;;34.67;17.20;;;1.50;99.90;;;;;;5055491;28;20455;-62
2020/12/11 05:24:16;;;;;;;41.83;16.50;;;1.50;99.90;;;;;;5056426;28;20780;-58
2020/12/11 05:26:42;;;;;;;39.30;17.50;;;1.50;99.90;;;;;;5056110;28;20455;-58
2020/12/11 05:29:08;;;;;;;38.03;16.10;;;1.50;99.90;;;;;;5055896;28;20451;-59
2020/12/11 05:31:35;;;;;;;40.50;16.33;;;1.50;99.90;;;;;;5056334;28;20533;-59
2020/12/11 05:34:07;;;;;;;43.80;18.03;;;1.50;99.90;;;;;;5056086;28;20497;-62
2020/12/11 05:36:49;;;;;;;34.40;16.60;;;1.50;99.90;;;;;;5055295;28;20824;-61
2020/12/11 05:39:19;;;;;;;38.67;17.33;;;1.50;99.90;;;;;;5054913;28;20450;-62
2020/12/11 05:41:45;;;;;;;39.23;15.70;;;1.50;99.90;;;;;;5055612;28;20774;-61
2020/12/11 05:44:29;;;;;;;35.33;16.80;;;1.50;99.90;;;;;;5054856;28;20483;-56
2020/12/11 05:46:57;;;;;;;34.53;15.40;;;1.50;99.90;;;;;;5055078;28;20451;-57
2020/12/11 05:49:29;;;;;;;33.90;15.77;;;1.50;99.90;;;;;;5055935;28;20789;-62
2020/12/11 05:51:59;;;;;;;39.50;18.40;;;1.40;99.90;;;;;;5057805;28;20443;-62
2020/12/11 05:54:25;;;;;;;38.47;15.80;;;1.50;99.90;;;;;;5056459;28;20446;-57
2020/12/11 05:56:52;;;;;;;37.97;17.30;;;1.50;99.90;;;;;;5055819;28;20479;-56
2020/12/11 05:59:21;;;;;;;34.23;16.40;;;1.50;99.90;;;;;;5056013;28;20455;-62
2020/12/11 06:01:49;;;;;;;38.33;16.10;;;1.60;99.90;;;;;;5057663;28;20523;-54
2020/12/11 06:04:17;;;;;;;40.90;16.20;;;1.60;99.90;;;;;;5058465;28;20929;-58
2020/12/11 06:06:45;;;;;;;34.23;16.50;;;1.60;99.90;;;;;;5058595;28;20556;-61
2020/12/11 06:09:13;;;;;;;37.27;16.33;;;1.60;99.90;;;;;;5058167;28;20512;-62
2020/12/11 06:11:46;;;;;;;39.87;17.00;;;1.60;99.90;;;;;;5057476;28;20459;-62
2020/12/11 06:14:23;;;;;;;35.27;15.17;;;1.60;99.90;;;;;;5056652;28;20467;-56
2020/12/11 06:16:52;;;;;;;35.73;16.43;;;1.60;99.90;;;;;;5055184;28;20462;-55
2020/12/11 06:19:20;;;;;;;39.73;17.13;;;1.60;99.90;;;;;;5054699;28;20459;-57
2020/12/11 06:21:46;;;;;;;30.90;14.73;;;1.60;99.90;;;;;;5054789;28;20459;-56
2020/12/11 06:24:28;;;;;;;35.40;16.00;;;1.60;99.90;;;;;;5054547;28;20949;-55
2020/12/11 06:26:57;;;;;;;39.60;17.27;;;1.60;99.90;;;;;;5054729;28;20446;-55
2020/12/11 06:29:28;;;;;;;38.10;15.93;;;1.60;99.90;;;;;;5054856;28;20785;-62
2020/12/11 06:31:54;;;;;;;36.40;16.60;;;1.60;99.90;;;;;;5055561;28;20943;-62
2020/12/11 06:34:22;;;;;;;41.17;16.90;;;1.60;99.90;;;;;;5055658;28;20455;-61
2020/12/11 06:36:49;;;;;;;40.33;17.63;;;1.60;99.90;;;;;;5054933;28;20483;-54
2020/12/11 06:39:40;;;;;;;44.00;17.70;;;1.70;99.90;;;;;;5054982;28;20542;-61
2020/12/11 06:42:06;;;;;;;32.73;17.50;;;1.70;99.90;;;;;;5055114;28;20810;-61
2020/12/11 06:44:33;;;;;;;45.70;18.40;;;1.60;99.90;;;;;;5054824;28;20489;-61
2020/12/11 06:47:07;;;;;;;34.40;16.90;;;1.60;99.90;;;;;;5054753;28;20450;-62
2020/12/11 06:49:35;;;;;;;38.93;17.30;;;1.60;99.90;;;;;;5054864;28;20478;-62
2020/12/11 06:52:14;;;;;;;44.17;19.27;;;1.60;99.90;;;;;;5056752;28;20504;-61
2020/12/11 06:54:52;;;;;;;39.40;18.67;;;1.60;99.90;;;;;;5058916;28;20541;-60
2020/12/11 06:57:38;;;;;;;52.03;20.30;;;1.60;99.90;;;;;;5058344;28;20920;-61
2020/12/11 07:00:35;;;;;;;44.17;18.20;;;1.60;99.90;;;;;;5058311;28;20471;-57
2020/12/11 07:03:30;;;;;;;36.03;16.30;;;1.70;99.90;;;;;;4958926;29;20533;-57
2020/12/11 07:06:04;;;;;;;37.60;18.13;;;1.70;99.90;;;;;;5054351;28;20462;-58
2020/12/11 07:08:31;;;;;;;43.60;18.63;;;1.60;99.90;;;;;;5058049;28;20451;-62
2020/12/11 07:11:06;;;;;;;49.13;19.00;;;1.60;99.90;;;;;;5059232;28;20447;-62
2020/12/11 07:13:35;;;;;;;39.47;18.87;;;1.60;99.90;;;;;;5058326;28;20892;-62
2020/12/11 07:16:02;;;;;;;46.00;18.47;;;1.60;99.90;;;;;;5058749;28;20482;-58
2020/12/11 07:18:28;;;;;;;44.57;17.63;;;1.70;99.90;;;;;;5059139;28;20455;-60
2020/12/11 07:20:57;;;;;;;44.93;16.97;;;1.70;99.90;;;;;;5058140;28;20927;-58
2020/12/11 07:23:24;;;;;;;39.57;19.33;;;1.70;99.90;;;;;;5058215;28;20455;-56
2020/12/11 07:25:52;;;;;;;40.27;17.50;;;1.80;99.90;;;;;;5058650;28;20504;-61
2020/12/11 07:28:18;;;;;;;36.03;16.67;;;1.90;99.90;;;;;;5057959;28;20466;-62
2020/12/11 07:30:46;;;;;;;45.20;18.80;;;1.90;99.90;;;;;;5058608;28;20455;-55
2020/12/11 07:33:12;;;;;;;41.27;16.77;;;1.90;99.90;;;;;;5058541;28;20978;-58
2020/12/11 07:35:46;;;;;;;34.43;17.80;;;2.00;99.90;;;;;;5058048;28;20564;-57
2020/12/11 07:38:12;;;;;;;56.40;20.27;;;2.00;99.90;;;;;;5058545;28;20505;-57
2020/12/11 07:40:39;;;;;;;52.23;19.50;;;2.00;99.90;;;;;;5058316;28;20455;-58
2020/12/11 07:43:05;;;;;;;46.50;18.40;;;2.00;99.90;;;;;;5057548;28;20452;-61
2020/12/11 07:45:34;;;;;;;40.57;19.50;;;2.00;99.90;;;;;;5057765;28;20440;-55
2020/12/11 07:48:00;;;;;;;40.30;19.17;;;2.00;99.90;;;;;;5057585;28;20827;-61
2020/12/11 07:50:27;;;;;;;44.57;17.97;;;2.00;99.90;;;;;;5058118;28;20517;-57
2020/12/11 07:52:55;;;;;;;40.77;17.90;;;2.00;99.90;;;;;;5057518;28;20562;-57
2020/12/11 07:55:22;;;;;;;39.43;18.73;;;2.00;99.90;;;;;;5058829;28;20475;-58
2020/12/11 07:57:54;;;;;;;45.03;18.93;;;2.00;99.90;;;;;;5059924;28;20516;-58
2020/12/11 08:00:21;;;;;;;41.63;15.67;;;2.00;99.90;;;;;;5058716;28;20692;-57
2020/12/11 08:02:57;;;;;;;37.57;16.97;;;2.00;99.90;;;;;;5057161;28;20498;-58
2020/12/11 08:05:24;;;;;;;40.80;18.03;;;2.00;99.90;;;;;;5057251;28;20481;-57
2020/12/11 08:07:54;;;;;;;36.80;17.50;;;2.00;99.90;;;;;;5058207;28;20451;-62
2020/12/11 08:10:22;;;;;;;42.33;18.60;;;2.00;99.90;;;;;;5057997;28;20763;-62
2020/12/11 08:12:49;;;;;;;42.07;17.03;;;2.00;99.90;;;;;;5058140;28;20462;-62
2020/12/11 08:15:30;;;;;;;43.23;19.10;;;2.00;99.90;;;;;;5058347;28;20544;-62
2020/12/11 08:18:14;;;;;;;44.37;17.47;;;2.10;99.90;;;;;;5056979;28;20532;-61
2020/12/11 08:20:47;;;;;;;44.03;17.63;;;2.10;99.90;;;;;;5057113;28;20489;-57
2020/12/11 08:23:24;;;;;;;32.37;16.47;;;2.10;99.90;;;;;;5056968;28;20755;-58
2020/12/11 08:26:24;;;;;;;35.07;16.17;;;2.10;99.90;;;;;;5059563;28;20431;-57
2020/12/11 08:28:51;;;;;;;36.23;16.70;;;2.00;99.90;;;;;;5051262;28;20439;-62
2020/12/11 08:31:20;;;;;;;44.10;18.33;;;2.00;99.90;;;;;;5056667;28;20520;-56
2020/12/11 08:33:47;;;;;;;44.37;19.67;;;2.00;99.90;;;;;;5057043;28;20938;-57
2020/12/11 08:36:22;;;;;;;49.50;19.40;;;1.90;99.90;;;;;;5057231;28;20483;-58
2020/12/11 08:39:09;;;;;;;38.57;17.10;;;1.90;99.90;;;;;;5056880;28;20439;-61
2020/12/11 08:41:38;;;;;;;42.33;18.83;;;1.90;99.90;;;;;;5057183;28;20451;-62
2020/12/11 08:44:09;;;;;;;35.07;17.90;;;1.80;99.90;;;;;;5056909;28;20502;-54
2020/12/11 08:46:44;;;;;;;40.07;18.90;;;1.80;99.90;;;;;;5057119;28;20436;-57
2020/12/11 08:49:16;;;;;;;36.73;17.13;;;1.80;99.90;;;;;;5056601;28;20435;-58
2020/12/11 08:51:42;;;;;;;39.20;19.30;;;1.80;99.90;;;;;;5049445;28;20450;-56
2020/12/11 08:54:09;;;;;;;41.03;18.80;;;1.80;99.90;;;;;;5056223;28;20521;-57
2020/12/11 08:56:36;;;;;;;31.17;18.10;;;1.80;99.90;;;;;;5058033;28;20481;-58
2020/12/11 08:59:02;;;;;;;42.10;19.13;;;1.90;99.90;;;;;;5057581;28;20548;-59
2020/12/11 09:01:28;;;;;;;36.83;16.93;;;1.80;99.90;;;;;;5058189;28;20451;-62
2020/12/11 09:03:55;;;;;;;32.53;16.13;;;1.80;99.90;;;;;;5056748;28;20443;-63
2020/12/11 09:06:21;;;;;;;29.60;15.33;;;1.80;99.90;;;;;;5056311;28;20456;-62
2020/12/11 09:08:47;;;;;;;38.00;18.30;;;1.80;99.90;;;;;;5056841;28;20455;-62
2020/12/11 09:11:13;;;;;;;34.10;16.17;;;1.90;99.90;;;;;;5056128;28;20451;-61
2020/12/11 09:13:41;;;;;;;34.67;16.60;;;1.90;99.90;;;;;;5056358;28;20920;-62
2020/12/11 09:16:07;;;;;;;31.17;16.30;;;1.90;99.90;;;;;;5055309;28;20485;-62
2020/12/11 09:18:33;;;;;;;36.60;17.03;;;1.90;99.90;;;;;;5055832;28;20633;-62
2020/12/11 09:21:00;;;;;;;34.80;17.67;;;1.90;99.90;;;;;;5055809;28;20452;-62
2020/12/11 09:23:26;;;;;;;38.17;16.30;;;1.90;99.90;;;;;;5055773;28;20524;-61
2020/12/11 09:25:52;;;;;;;30.97;16.40;;;1.90;99.90;;;;;;5055460;28;20815;-63
2020/12/11 09:28:20;;;;;;;37.73;16.10;;;1.90;99.90;;;;;;5055273;28;20463;-62
2020/12/11 09:30:47;;;;;;;38.53;17.40;;;2.00;99.90;;;;;;5055938;28;20932;-62
2020/12/11 09:33:17;;;;;;;28.23;15.23;;;2.10;99.90;;;;;;5055768;28;20516;-61
2020/12/11 09:35:43;;;;;;;28.23;15.13;;;2.10;99.90;;;;;;5055304;28;20479;-61
2020/12/11 09:38:10;;;;;;;40.77;18.67;;;2.10;99.90;;;;;;5055393;28;20455;-59
2020/12/11 09:40:43;;;;;;;26.77;15.57;;;2.20;99.90;;;;;;5055463;28;20479;-54
2020/12/11 09:45:53;;;;;;;30.03;14.80;;;2.20;99.90;;;;;;5054338;28;20912;-59
2020/12/11 09:48:28;;;;;;;34.23;15.37;;;2.20;99.90;;;;;;5055579;28;20462;-62
2020/12/11 09:51:04;;;;;;;33.53;16.07;;;2.20;99.90;;;;;;5055969;28;20458;-58
2020/12/11 09:53:58;;;;;;;36.00;15.57;;;2.20;99.90;;;;;;5055509;28;20812;-59
2020/12/11 09:56:27;;;;;;;36.47;17.17;;;2.30;99.90;;;;;;5054783;28;20498;-57
2020/12/11 09:58:57;;;;;;;34.73;17.10;;;2.30;99.90;;;;;;5055258;28;20538;-63
2020/12/11 10:01:25;;;;;;;37.27;17.50;;;2.30;99.90;;;;;;5055368;28;20474;-62
2020/12/11 10:03:53;;;;;;;35.20;18.13;;;2.30;99.90;;;;;;5055641;28;20783;-62
2020/12/11 10:06:23;;;;;;;40.40;17.30;;;2.30;99.90;;;;;;5055088;28;20462;-64
2020/12/11 10:08:50;;;;;;;38.00;18.70;;;2.30;99.90;;;;;;5055168;28;20485;-61
2020/12/11 10:11:18;;;;;;;39.93;18.13;;;2.40;99.90;;;;;;5055184;28;20491;-62
2020/12/11 10:13:45;;;;;;;39.03;19.03;;;2.40;99.90;;;;;;5054623;28;20939;-56
2020/12/11 10:16:14;;;;;;;38.43;18.50;;;2.50;99.90;;;;;;5054859;28;20478;-62
2020/12/11 10:18:40;;;;;;;41.50;18.27;;;2.50;99.90;;;;;;5054931;28;20525;-62
2020/12/11 10:21:08;;;;;;;31.80;17.00;;;2.60;99.90;;;;;;5055161;28;20460;-63
2020/12/11 10:23:34;;;;;;;36.77;16.90;;;2.60;99.90;;;;;;5054920;28;20525;-62
2020/12/11 10:26:02;;;;;;;33.13;18.07;;;2.60;99.90;;;;;;5057228;28;20447;-60
2020/12/11 10:28:29;;;;;;;34.97;16.83;;;2.60;99.90;;;;;;5059108;28;20454;-57
2020/12/11 10:30:55;;;;;;;33.97;17.57;;;2.50;99.90;;;;;;5060163;28;20789;-59
2020/12/11 10:33:21;;;;;;;35.10;17.20;;;2.60;99.90;;;;;;5061205;28;20490;-59
2020/12/11 10:35:48;;;;;;;33.30;17.13;;;2.70;99.90;;;;;;5061049;28;20482;-60
2020/12/11 10:38:14;;;;;;;38.20;17.97;;;2.60;99.90;;;;;;5059055;28;20789;-57
2020/12/11 10:40:40;;;;;;;34.60;17.23;;;2.60;99.90;;;;;;5059192;28;20459;-58
2020/12/11 10:43:07;;;;;;;37.13;16.00;;;2.70;99.90;;;;;;5059080;28;20521;-57
2020/12/11 10:45:33;;;;;;;32.97;17.50;;;2.70;99.90;;;;;;5058887;28;20898;-58
2020/12/11 10:47:59;;;;;;;35.37;17.20;;;2.70;99.90;;;;;;5060211;28;20516;-58
2020/12/11 10:50:25;;;;;;;29.73;15.57;;;2.70;99.90;;;;;;5059097;28;20451;-58
2020/12/11 10:52:51;;;;;;;34.50;16.97;;;2.80;99.90;;;;;;5058574;28;20494;-58
2020/12/11 10:55:17;;;;;;;31.03;17.20;;;2.80;99.90;;;;;;5058569;28;20512;-62
2020/12/11 10:57:43;;;;;;;30.70;16.90;;;2.90;99.90;;;;;;5059201;28;20458;-58
2020/12/11 11:00:10;;;;;;;38.13;17.60;;;2.80;99.90;;;;;;5058962;28;20509;-58
2020/12/11 11:02:36;;;;;;;32.93;16.67;;;2.80;99.90;;;;;;5058246;28;20454;-57
2020/12/11 11:05:03;;;;;;;32.30;17.30;;;2.80;99.90;;;;;;5060860;28;20546;-59
2020/12/11 11:07:30;;;;;;;32.70;17.17;;;2.80;99.90;;;;;;5064444;28;20538;-63
2020/12/11 11:10:12;;;;;;;36.07;17.23;;;2.90;99.90;;;;;;5061209;28;20455;-62
2020/12/11 11:12:42;;;;;;;35.93;17.00;;;2.90;99.90;;;;;;5050496;28;20450;-62
2020/12/11 11:20:49;;;;;;;32.60;16.80;;;2.90;99.90;;;;;;5060429;28;20435;-62
2020/12/11 11:23:30;;;;;;;30.80;15.97;;;2.90;99.90;;;;;;5059340;28;20815;-62
2020/12/11 11:26:14;;;;;;;35.57;16.97;;;2.90;99.90;;;;;;5058698;28;20438;-62
2020/12/11 11:28:40;;;;;;;33.87;17.20;;;2.90;99.90;;;;;;5059455;28;20435;-61
2020/12/11 11:31:10;;;;;;;35.83;18.43;;;2.90;99.90;;;;;;5059174;28;20536;-63
2020/12/11 11:33:38;;;;;;;31.87;17.00;;;2.90;99.90;;;;;;5058047;28;20451;-61
2020/12/11 11:36:04;;;;;;;33.90;18.43;;;2.90;99.90;;;;;;5058104;28;20804;-62
2020/12/11 11:38:31;;;;;;;34.33;17.33;;;2.90;99.90;;;;;;5057051;28;20517;-62
2020/12/11 11:40:57;;;;;;;35.50;16.60;;;2.90;99.90;;;;;;5058009;28;20455;-62
2020/12/11 11:43:30;;;;;;;37.80;18.93;;;2.90;99.90;;;;;;5058364;28;20488;-58
2020/12/11 11:45:57;;;;;;;34.30;17.50;;;3.00;99.90;;;;;;5057974;28;20426;-57
2020/12/11 11:48:23;;;;;;;33.77;18.03;;;3.00;99.90;;;;;;5057775;28;20540;-58
2020/12/11 11:50:56;;;;;;;29.70;15.80;;;3.00;99.90;;;;;;5058328;28;20455;-59
2020/12/11 11:53:22;;;;;;;40.70;17.37;;;3.00;99.90;;;;;;5058032;28;20474;-62
2020/12/11 11:55:48;;;;;;;37.03;19.83;;;3.00;99.90;;;;;;5058294;28;20502;-62
2020/12/11 11:58:14;;;;;;;34.47;17.53;;;3.00;99.90;;;;;;5056893;28;20455;-61
2020/12/11 12:00:41;;;;;;;33.33;16.67;;;3.00;99.90;;;;;;5057632;28;20540;-59
2020/12/11 12:03:07;;;;;;;29.17;15.17;;;3.10;99.90;;;;;;5057124;28;20459;-63
2020/12/11 12:05:33;;;;;;;31.67;16.77;;;3.10;99.90;;;;;;5057233;28;20521;-63
2020/12/11 12:08:00;;;;;;;27.67;17.00;;;3.10;99.90;;;;;;5057154;28;20456;-62
2020/12/11 12:10:26;;;;;;;31.37;16.40;;;3.10;99.90;;;;;;5057260;28;20485;-62
2020/12/11 12:12:52;;;;;;;33.90;17.77;;;3.20;99.90;;;;;;5057691;28;20458;-62
2020/12/11 12:15:21;;;;;;;26.83;15.27;;;3.20;99.90;;;;;;5057644;28;20542;-61
2020/12/11 12:17:53;;;;;;;35.57;17.27;;;3.20;99.90;;;;;;5057752;28;20469;-61
2020/12/11 12:20:24;;;;;;;28.97;17.00;;;3.30;99.90;;;;;;5058372;28;20494;-62
2020/12/11 12:23:31;;;;;;;36.17;18.43;;;3.30;99.90;;;;;;5057005;28;20450;-62
2020/12/11 12:31:27;;;;;;;38.73;18.73;;;3.30;99.90;;;;;;5056810;28;20459;-60
2020/12/11 12:36:53;;;;;;;38.03;16.73;;;3.40;99.90;;;;;;5056339;28;20576;-59
2020/12/11 12:39:37;;;;;;;33.50;17.20;;;3.50;99.90;;;;;;5056740;28;20458;-58
2020/12/11 12:42:34;;;;;;;32.83;17.90;;;3.60;99.90;;;;;;5056338;28;20439;-58
2020/12/11 12:45:01;;;;;;;33.97;18.80;;;3.50;99.90;;;;;;5056378;28;20502;-58
2020/12/11 12:47:27;;;;;;;40.00;18.33;;;3.60;99.90;;;;;;5056411;28;20831;-62
2020/12/11 12:49:53;;;;;;;35.37;17.50;;;3.60;99.90;;;;;;5055505;28;20489;-62
2020/12/11 12:52:19;;;;;;;37.03;17.43;;;3.60;99.90;;;;;;5056437;28;20458;-61
2020/12/11 12:54:45;;;;;;;33.63;17.13;;;3.60;99.90;;;;;;5056288;28;20529;-62
2020/12/11 12:57:16;;;;;;;39.70;18.80;;;3.70;99.90;;;;;;5056433;28;20495;-64
2020/12/11 12:59:47;;;;;;;32.17;18.30;;;3.70;99.90;;;;;;5055904;28;20787;-60